Time;durP1;ratioP1;P1;durP2;ratioP2;P2;SDS_P1;SDS_P2;PMS_P1;PMS_P2;Temp;Humidity;BMP_temperature;BMP_pressure;BME280_temperature;BME280_humidity;BME280_pressure;Samples;Min_cycle;Max_cycle;Signal;HPM_P1;HPM_P2
2023/04/21 00:02:23;;;;;;;24.05;15.35;;;;;;;5.67;100.00;101743.53;5034134;28;20041;-70
2023/04/21 00:04:48;;;;;;;22.70;15.05;;;;;;;5.65;100.00;101733.06;5034468;28;20037;-71
2023/04/21 00:07:14;;;;;;;20.73;14.77;;;;;;;5.63;100.00;101724.38;5034156;28;20130;-71
2023/04/21 00:09:40;;;;;;;21.98;15.35;;;;;;;5.62;100.00;101719.19;5034508;28;20068;-72
2023/04/21 00:12:06;;;;;;;23.35;15.75;;;;;;;5.61;100.00;101713.06;5033912;28;20060;-69
2023/04/21 00:14:31;;;;;;;23.20;15.77;;;;;;;5.59;100.00;101708.81;5034469;28;20095;-69
2023/04/21 00:16:58;;;;;;;23.70;15.43;;;;;;;5.61;100.00;101712.19;5034166;28;20041;-69
2023/04/21 00:19:24;;;;;;;21.67;15.55;;;;;;;5.59;100.00;101712.28;5034098;28;20040;-69
2023/04/21 00:21:50;;;;;;;24.23;14.90;;;;;;;5.62;100.00;101722.66;5033973;28;20037;-70
2023/04/21 00:24:15;;;;;;;26.05;16.13;;;;;;;5.61;100.00;101722.75;5033916;28;20041;-70
2023/04/21 00:26:40;;;;;;;24.50;15.75;;;;;;;5.60;100.00;101726.34;5032589;28;20364;-70
2023/04/21 00:29:06;;;;;;;25.55;16.27;;;;;;;5.59;100.00;101736.03;5033921;28;20033;-72
2023/04/21 00:31:31;;;;;;;28.35;15.57;;;;;;;5.61;100.00;101738.59;5032200;28;20116;-69
2023/04/21 00:33:56;;;;;;;25.42;16.45;;;;;;;5.61;100.00;101731.56;5033515;28;20087;-70
2023/04/21 00:36:23;;;;;;;26.38;15.98;;;;;;;5.61;100.00;101739.47;5034008;28;20494;-70
2023/04/21 00:38:49;;;;;;;27.73;17.25;;;;;;;5.62;100.00;101735.03;5033393;28;20313;-70
2023/04/21 00:41:14;;;;;;;26.85;16.38;;;;;;;5.63;100.00;101720.91;5033293;28;20044;-69
2023/04/21 00:44:08;;;;;;;31.05;16.90;;;;;;;5.62;100.00;101716.56;5033557;28;20065;-69
2023/04/21 00:46:35;;;;;;;26.13;16.50;;;;;;;5.62;100.00;101706.00;5033543;28;20033;-70
2023/04/21 00:49:03;;;;;;;30.58;17.25;;;;;;;5.61;100.00;101706.91;5033242;28;20057;-69
2023/04/21 00:51:31;;;;;;;26.70;17.55;;;;;;;5.61;100.00;101691.06;5033301;28;20363;-69
2023/04/21 00:53:57;;;;;;;28.70;17.65;;;;;;;5.61;100.00;101680.50;5032921;28;20087;-69
2023/04/21 00:56:24;;;;;;;29.17;17.10;;;;;;;5.59;100.00;101682.41;5032418;28;20034;-69
2023/04/21 00:58:50;;;;;;;27.58;17.17;;;;;;;5.59;100.00;101685.03;5033195;28;20033;-70
2023/04/21 01:01:16;;;;;;;31.73;18.02;;;;;;;5.58;100.00;101676.28;5031787;28;20182;-69
2023/04/21 01:03:41;;;;;;;29.15;16.92;;;;;;;5.59;100.00;101679.75;5033039;28;20089;-70
2023/04/21 01:06:08;;;;;;;32.55;18.35;;;;;;;5.58;100.00;101676.28;5033272;28;20033;-70
2023/04/21 01:08:33;;;;;;;37.28;18.23;;;;;;;5.58;100.00;101673.66;5032747;28;20040;-70
2023/04/21 01:10:59;;;;;;;30.67;17.40;;;;;;;5.59;100.00;101675.31;5033243;28;20030;-69
2023/04/21 01:13:24;;;;;;;28.73;17.15;;;;;;;5.60;100.00;101679.69;5034022;28;20045;-69
2023/04/21 01:15:49;;;;;;;30.00;18.05;;;;;;;5.61;100.00;101675.22;5031704;28;20033;-69
2023/04/21 01:18:17;;;;;;;34.03;18.95;;;;;;;5.62;100.00;101676.94;5032204;28;20037;-69
2023/04/21 01:20:43;;;;;;;32.50;18.20;;;;;;;5.63;100.00;101682.13;5032982;28;20037;-69
2023/04/21 01:23:09;;;;;;;35.63;18.58;;;;;;;5.63;100.00;101670.75;5033045;28;20057;-70
2023/04/21 01:25:35;;;;;;;32.92;18.77;;;;;;;5.65;100.00;101672.34;5033482;28;20115;-71
2023/04/21 01:28:00;;;;;;;32.72;18.23;;;;;;;5.68;100.00;101676.59;5033136;28;20471;-71
2023/04/21 01:30:26;;;;;;;33.83;18.85;;;;;;;5.68;100.00;101676.59;5033120;28;20528;-70
2023/04/21 01:32:51;;;;;;;31.45;18.70;;;;;;;5.69;100.00;101677.44;5032575;28;20471;-70
2023/04/21 01:35:17;;;;;;;36.03;18.90;;;;;;;5.69;100.00;101672.16;5014893;28;20036;-70
2023/04/21 01:37:42;;;;;;;34.25;18.95;;;;;;;5.69;100.00;101682.72;5031238;28;20033;-71
2023/04/21 01:40:08;;;;;;;34.03;19.10;;;;;;;5.69;100.00;101678.31;5033066;28;20115;-70
2023/04/21 01:42:36;;;;;;;35.08;19.50;;;;;;;5.70;100.00;101674.72;5032869;28;20059;-69
2023/04/21 01:45:03;;;;;;;36.55;19.50;;;;;;;5.73;100.00;101666.63;5032590;28;20145;-70
2023/04/21 01:47:28;;;;;;;35.40;19.25;;;;;;;5.73;100.00;101665.78;5032613;28;20064;-69
2023/04/21 01:49:53;;;;;;;35.65;19.20;;;;;;;5.73;100.00;101653.44;5031888;28;20440;-70
2023/04/21 01:52:19;;;;;;;37.13;19.20;;;;;;;5.72;100.00;101662.28;5032406;28;20038;-69
2023/04/21 01:54:44;;;;;;;32.72;18.48;;;;;;;5.71;100.00;101655.28;5033119;28;20065;-70
2023/04/21 01:57:10;;;;;;;38.78;20.35;;;;;;;5.71;100.00;101654.47;5032290;28;20030;-70
2023/04/21 01:59:35;;;;;;;37.78;19.63;;;;;;;5.72;100.00;101656.13;5031065;28;20040;-69
2023/04/21 02:02:01;;;;;;;32.22;18.67;;;;;;;5.71;100.00;101650.00;5031371;28;20038;-69
2023/04/21 02:04:27;;;;;;;36.28;19.98;;;;;;;5.71;100.00;101634.16;5032587;28;20036;-69
2023/04/21 02:06:52;;;;;;;34.95;19.58;;;;;;;5.72;100.00;101632.38;5034141;28;20415;-70
2023/04/21 02:09:17;;;;;;;36.63;19.38;;;;;;;5.73;100.00;101626.16;5036475;28;20059;-71
2023/04/21 02:11:43;;;;;;;36.97;20.52;;;;;;;5.72;100.00;101625.31;5036741;28;20064;-70
2023/04/21 02:14:08;;;;;;;39.05;19.58;;;;;;;5.73;100.00;101624.38;5034770;28;20029;-70
2023/04/21 02:16:33;;;;;;;40.13;20.73;;;;;;;5.73;100.00;101615.59;5036932;28;20037;-70
2023/04/21 02:18:59;;;;;;;43.25;21.60;;;;;;;5.74;100.00;101622.59;5036290;28;20452;-70
2023/04/21 02:21:25;;;;;;;40.15;20.50;;;;;;;5.75;100.00;101625.13;5036692;28;20034;-70
2023/04/21 02:23:51;;;;;;;40.40;20.77;;;;;;;5.75;100.00;101626.94;5036228;28;20112;-70
2023/04/21 02:26:17;;;;;;;40.08;20.70;;;;;;;5.75;100.00;101619.84;5036337;28;20067;-70
2023/04/21 02:28:43;;;;;;;39.05;20.40;;;;;;;5.78;100.00;101616.19;5036374;28;20471;-70
2023/04/21 02:31:08;;;;;;;38.05;21.52;;;;;;;5.77;100.00;101622.41;5036097;28;20036;-70
2023/04/21 02:33:34;;;;;;;39.70;20.33;;;;;;;5.78;100.00;101618.84;5036179;28;20044;-69
2023/04/21 02:35:59;;;;;;;43.95;21.02;;;;;;;5.77;100.00;101625.06;5036530;28;20130;-70
2023/04/21 02:38:25;;;;;;;39.67;21.17;;;;;;;5.78;100.00;101618.84;5018627;28;20090;-69
2023/04/21 02:40:50;;;;;;;41.88;20.88;;;;;;;5.77;100.00;101625.06;5036230;28;20498;-70
2023/04/21 02:43:16;;;;;;;46.33;21.90;;;;;;;5.79;100.00;101618.75;5036468;28;20038;-70
2023/04/21 02:45:41;;;;;;;50.08;22.17;;;;;;;5.79;100.00;101612.59;5035865;28;20049;-70
2023/04/21 02:48:08;;;;;;;42.78;22.15;;;;;;;5.80;100.00;101617.78;5035450;28;20053;-70
2023/04/21 02:50:34;;;;;;;46.75;21.88;;;;;;;5.80;100.00;101609.88;5034521;28;20049;-70
2023/04/21 02:53:00;;;;;;;47.47;23.45;;;;;;;5.82;100.00;101599.22;5036221;28;20038;-70
2023/04/21 02:55:25;;;;;;;54.03;24.00;;;;;;;5.81;100.00;101602.81;5036222;28;20408;-70
2023/04/21 02:57:50;;;;;;;48.85;23.98;;;;;;;5.79;100.00;101594.09;5035465;28;20360;-71
2023/04/21 03:00:16;;;;;;;49.85;23.88;;;;;;;5.77;100.00;101594.19;5035891;28;20112;-69
2023/04/21 03:02:42;;;;;;;48.72;23.52;;;;;;;5.77;100.00;101588.06;5035381;28;20048;-69
2023/04/21 03:05:07;;;;;;;49.25;23.65;;;;;;;5.76;100.00;101592.53;5035317;28;20073;-69
2023/04/21 03:07:33;;;;;;;52.22;23.25;;;;;;;5.76;100.00;101600.44;5035176;28;20127;-69
2023/04/21 03:09:58;;;;;;;54.30;24.83;;;;;;;5.77;100.00;101596.84;5033651;28;20084;-69
2023/04/21 03:12:23;;;;;;;55.85;24.20;;;;;;;5.77;100.00;101586.28;5035156;28;20026;-69
2023/04/21 03:14:49;;;;;;;52.25;24.50;;;;;;;5.75;100.00;101589.97;5035043;28;20034;-69
2023/04/21 03:17:14;;;;;;;49.65;23.10;;;;;;;5.74;100.00;101588.25;5034786;28;20064;-70
2023/04/21 03:19:40;;;;;;;59.42;25.20;;;;;;;5.73;100.00;101595.34;5034773;28;20111;-69
2023/04/21 03:22:05;;;;;;;51.80;24.40;;;;;;;5.72;100.00;101593.63;5035390;28;20470;-69
2023/04/21 03:24:31;;;;;;;51.15;23.83;;;;;;;5.72;100.00;101596.28;5034815;28;20037;-69
2023/04/21 03:26:57;;;;;;;55.67;24.98;;;;;;;5.74;100.00;101591.75;5034787;28;20091;-70
2023/04/21 03:29:22;;;;;;;58.85;24.85;;;;;;;5.74;100.00;101593.53;5034842;28;20486;-69
2023/04/21 03:31:47;;;;;;;59.50;24.65;;;;;;;5.74;100.00;101590.91;5034819;28;20476;-69
2023/04/21 03:34:13;;;;;;;53.70;24.60;;;;;;;5.71;100.00;101580.53;5034675;28;20094;-69
2023/04/21 03:36:38;;;;;;;48.97;23.98;;;;;;;5.69;100.00;101583.25;5035246;28;20478;-69
2023/04/21 03:39:04;;;;;;;59.50;26.13;;;;;;;5.67;100.00;101582.47;5035190;28;20091;-69
2023/04/21 03:41:29;;;;;;;59.15;26.42;;;;;;;5.65;100.00;101579.91;5034783;28;20045;-70
2023/04/21 03:43:54;;;;;;;61.15;26.13;;;;;;;5.63;100.00;101571.25;5034010;28;20040;-69
2023/04/21 03:46:21;;;;;;;54.72;24.52;;;;;;;5.59;100.00;101568.88;5035012;28;20030;-70
2023/04/21 03:48:47;;;;;;;55.88;24.80;;;;;;;5.57;100.00;101563.69;5034414;28;20061;-70
2023/04/21 03:51:13;;;;;;;58.17;25.08;;;;;;;5.56;100.00;101571.69;5033816;28;20136;-70
2023/04/21 03:53:39;;;;;;;60.38;26.58;;;;;;;5.55;100.00;101557.63;5033453;28;20099;-71
2023/04/21 03:56:04;;;;;;;58.15;25.55;;;;;;;5.56;100.00;101547.94;5034179;28;20029;-69
2023/04/21 03:58:30;;;;;;;64.78;27.33;;;;;;;5.58;100.00;101556.59;5034018;28;20117;-69
2023/04/21 04:00:55;;;;;;;68.22;27.00;;;;;;;5.58;100.00;101551.31;5034479;28;20472;-69
2023/04/21 04:03:21;;;;;;;68.43;27.58;;;;;;;5.57;100.00;101554.91;5033889;28;20067;-69
2023/04/21 04:05:46;;;;;;;57.38;26.25;;;;;;;5.55;100.00;101543.59;5033236;28;20088;-69
2023/04/21 04:08:12;;;;;;;71.20;28.23;;;;;;;5.54;100.00;101537.47;5033819;28;20038;-70
2023/04/21 04:10:37;;;;;;;66.20;27.75;;;;;;;5.55;100.00;101540.94;5033174;28;20459;-69
2023/04/21 04:13:03;;;;;;;63.63;26.23;;;;;;;5.53;100.00;101541.03;5034221;28;20097;-67
2023/04/21 04:15:28;;;;;;;62.42;26.13;;;;;;;5.53;100.00;101540.19;5034479;28;20368;-71
2023/04/21 04:17:54;;;;;;;69.57;26.80;;;;;;;5.54;100.00;101537.47;5034232;28;20041;-69
2023/04/21 04:20:20;;;;;;;66.55;27.30;;;;;;;5.53;100.00;101529.63;5034113;28;20445;-71
2023/04/21 04:22:45;;;;;;;64.72;26.55;;;;;;;5.54;100.00;101536.59;5034277;28;20040;-69
2023/04/21 04:25:13;;;;;;;63.63;27.15;;;;;;;5.53;100.00;101542.84;5034090;28;20084;-71
2023/04/21 04:27:39;;;;;;;62.17;27.40;;;;;;;5.52;100.00;101544.59;5034038;28;20091;-71
2023/04/21 04:30:05;;;;;;;69.90;27.13;;;;;;;5.52;100.00;101538.50;5033084;28;20116;-71
2023/04/21 04:32:32;;;;;;;67.82;27.27;;;;;;;5.52;100.00;101539.31;5033836;28;20590;-69
2023/04/21 04:34:57;;;;;;;69.70;28.67;;;;;;;5.50;100.00;101546.50;5032560;28;20059;-70
2023/04/21 04:37:24;;;;;;;65.00;27.83;;;;;;;5.51;100.00;101540.28;5033852;28;20490;-69
2023/04/21 04:39:52;;;;;;;69.90;28.85;;;;;;;5.51;100.00;101539.41;5034119;28;20047;-69
2023/04/21 04:42:19;;;;;;;74.50;28.83;;;;;;;5.51;100.00;101548.22;5033678;28;20072;-71
2023/04/21 04:44:44;;;;;;;72.72;28.98;;;;;;;5.54;100.00;101544.53;5032476;28;20041;-69
2023/04/21 04:47:11;;;;;;;73.65;29.50;;;;;;;5.53;100.00;101537.56;5033583;28;20387;-69
2023/04/21 04:49:36;;;;;;;76.05;29.15;;;;;;;5.50;100.00;101540.38;5033372;28;20119;-69
2023/04/21 04:52:02;;;;;;;69.53;28.35;;;;;;;5.45;100.00;101540.66;5033857;28;20037;-69
2023/04/21 04:54:28;;;;;;;69.55;28.38;;;;;;;5.40;100.00;101530.31;5033868;28;20033;-69
2023/04/21 04:56:53;;;;;;;69.47;28.70;;;;;;;5.39;100.00;101536.56;5033571;28;20071;-69
2023/04/21 04:59:19;;;;;;;73.22;30.00;;;;;;;5.37;100.00;101541.06;5032243;28;20034;-69
2023/04/21 05:01:44;;;;;;;70.18;28.20;;;;;;;5.37;100.00;101550.78;5033492;28;20033;-70
2023/04/21 05:04:10;;;;;;;80.50;30.40;;;;;;;5.39;100.00;101557.69;5031984;28;20029;-68
2023/04/21 05:06:36;;;;;;;75.80;29.52;;;;;;;5.45;100.00;101557.31;5033491;28;20029;-68
2023/04/21 05:09:03;;;;;;;77.60;29.17;;;;;;;5.51;100.00;101563.19;5033289;28;20033;-69
2023/04/21 05:11:29;;;;;;;77.25;30.58;;;;;;;5.57;100.00;101562.81;5033256;28;20421;-69
2023/04/21 05:13:54;;;;;;;78.72;30.75;;;;;;;5.62;100.00;101560.78;5033460;28;20104;-69
2023/04/21 05:16:19;;;;;;;76.60;29.55;;;;;;;5.67;100.00;101569.28;5032461;28;20380;-69
2023/04/21 05:18:45;;;;;;;70.60;29.30;;;;;;;5.71;100.00;101565.50;5033797;28;20034;-69
2023/04/21 05:21:10;;;;;;;81.95;31.48;;;;;;;5.76;100.00;101555.56;5033472;28;20356;-70
2023/04/21 05:23:36;;;;;;;78.50;31.58;;;;;;;5.80;100.00;101557.03;5033015;28;20057;-70
2023/04/21 05:26:01;;;;;;;81.57;30.35;;;;;;;5.84;100.00;101547.16;5033159;28;20036;-69
2023/04/21 05:28:29;;;;;;;78.82;30.73;;;;;;;5.90;100.00;101553.88;5033532;28;20036;-70
2023/04/21 05:30:54;;;;;;;83.82;30.52;;;;;;;5.93;100.00;101553.69;5032978;28;20037;-69
2023/04/21 05:33:20;;;;;;;81.55;30.77;;;;;;;5.99;100.00;101553.38;5033471;28;20035;-69
2023/04/21 05:35:45;;;;;;;81.93;31.17;;;;;;;6.02;100.00;101553.19;5032985;28;20083;-69
2023/04/21 05:38:11;;;;;;;78.43;30.05;;;;;;;6.06;100.00;101562.63;5033308;28;20419;-70
2023/04/21 05:40:36;;;;;;;73.78;29.48;;;;;;;6.12;100.00;101558.75;5032949;28;20112;-69
2023/04/21 05:43:02;;;;;;;71.25;28.95;;;;;;;6.19;100.00;101562.72;5032799;28;20035;-69
2023/04/21 05:45:27;;;;;;;87.97;32.75;;;;;;;6.28;100.00;101566.59;5032991;28;20430;-69
2023/04/21 05:47:52;;;;;;;74.47;29.08;;;;;;;6.36;100.00;101564.34;5032898;28;20033;-69
2023/04/21 05:50:18;;;;;;;75.97;30.13;;;;;;;6.40;100.00;101565.84;5032346;28;20492;-69
2023/04/21 05:52:43;;;;;;;72.35;29.35;;;;;;;6.45;100.00;101570.84;5032875;28;20038;-69
2023/04/21 05:55:09;;;;;;;69.82;29.00;;;;;;;6.49;100.00;101567.06;5032709;28;20032;-69
2023/04/21 05:57:34;;;;;;;70.63;30.08;;;;;;;6.52;100.00;101570.41;5031405;28;20037;-71
2023/04/21 06:00:00;;;;;;;70.05;29.17;;;;;;;6.59;100.00;101572.66;5032663;28;20026;-70
2023/04/21 06:02:25;;;;;;;66.13;28.65;;;;;;;6.67;100.00;101578.28;5031239;28;20045;-70
2023/04/21 06:04:50;;;;;;;57.33;27.05;;;;;;;6.68;100.00;101583.50;5032616;28;20076;-70
2023/04/21 06:07:17;;;;;;;61.83;27.90;;;;;;;6.68;100.00;101580.00;5032426;28;20034;-70
2023/04/21 06:09:42;;;;;;;63.58;27.45;;;;;;;6.73;100.00;101582.38;5032532;28;20041;-68
2023/04/21 06:12:08;;;;;;;58.85;26.77;;;;;;;6.77;100.00;101582.06;5032166;28;20036;-69
2023/04/21 06:14:33;;;;;;;59.00;28.25;;;;;;;6.83;100.00;101576.38;5032181;28;20103;-69
2023/04/21 06:16:58;;;;;;;55.13;28.17;;;;;;;6.87;100.00;101579.72;5032642;28;20057;-68
2023/04/21 06:19:24;;;;;;;52.50;26.05;;;;;;;6.89;100.00;101580.44;5032727;28;20052;-68
2023/04/21 06:21:50;;;;;;;55.85;26.65;;;;;;;6.88;100.00;101584.03;5032685;28;20034;-68
2023/04/21 06:24:15;;;;;;;57.83;26.20;;;;;;;6.91;100.00;101583.00;5032106;28;20174;-71
2023/04/21 06:26:41;;;;;;;52.55;26.23;;;;;;;6.93;100.00;101581.97;5032282;28;20457;-68
2023/04/21 06:29:06;;;;;;;49.88;24.67;;;;;;;6.98;100.00;101593.09;5032210;28;20039;-68
2023/04/21 06:31:31;;;;;;;56.20;26.30;;;;;;;7.05;100.00;101583.81;5030701;28;20040;-69
2023/04/21 06:33:57;;;;;;;58.58;27.08;;;;;;;7.23;100.00;101588.91;5032337;28;20104;-69
2023/04/21 06:36:22;;;;;;;52.10;26.65;;;;;;;7.34;100.00;101586.38;5032390;28;20033;-69
2023/04/21 06:38:48;;;;;;;52.33;26.33;;;;;;;7.38;100.00;101585.25;5032272;28;20045;-69
2023/04/21 06:41:13;;;;;;;47.28;24.92;;;;;;;7.43;100.00;101589.41;5031838;28;20065;-69
2023/04/21 06:43:40;;;;;;;45.83;24.30;;;;;;;7.43;100.00;101590.22;5032238;28;20112;-70
2023/04/21 06:46:05;;;;;;;44.08;24.63;;;;;;;7.48;100.00;101587.28;5032824;28;20037;-70
2023/04/21 06:48:30;;;;;;;44.78;23.95;;;;;;;7.53;100.00;101580.75;5030651;28;20048;-68
2023/04/21 06:50:56;;;;;;;47.20;25.15;;;;;;;7.54;100.00;101579.78;5032250;28;20100;-70
2023/04/21 06:53:21;;;;;;;42.70;25.35;;;;;;;7.61;100.00;101577.56;5033206;28;20040;-70
2023/04/21 06:55:47;;;;;;;44.90;25.75;;;;;;;7.70;100.00;101581.41;5035938;28;20036;-68
2023/04/21 06:58:13;;;;;;;45.70;26.67;;;;;;;7.74;100.00;101578.47;5035871;28;20029;-69
2023/04/21 07:00:38;;;;;;;45.78;25.25;;;;;;;7.83;100.00;101578.81;5034532;28;20044;-68
2023/04/21 07:03:05;;;;;;;44.58;25.90;;;;;;;7.86;100.00;101575.94;5035698;28;20045;-68
2023/04/21 07:05:30;;;;;;;49.83;27.67;;;;;;;7.88;100.00;101566.94;5035876;28;20041;-71
2023/04/21 07:07:58;;;;;;;51.22;27.70;;;;;;;8.01;100.00;101569.59;5035434;28;20124;-70
2023/04/21 07:10:25;;;;;;;46.05;26.20;;;;;;;8.00;100.00;101572.34;5035084;28;20033;-69
2023/04/21 07:12:50;;;;;;;47.47;27.85;;;;;;;8.06;100.00;101572.81;5035361;28;20025;-69
2023/04/21 07:15:16;;;;;;;47.88;27.45;;;;;;;8.10;100.00;101573.44;5034273;28;20037;-68
2023/04/21 07:17:41;;;;;;;44.60;26.77;;;;;;;8.12;100.00;101564.44;5035980;28;20061;-68
2023/04/21 07:20:07;;;;;;;45.45;27.17;;;;;;;8.03;100.00;101564.19;5035828;28;20060;-68
2023/04/21 07:22:34;;;;;;;45.80;28.00;;;;;;;7.99;100.00;101570.69;5035318;28;20184;-69
2023/04/21 07:25:05;;;;;;;47.80;27.85;;;;;;;8.00;100.00;101573.22;5034927;28;20044;-69
2023/04/21 07:27:30;;;;;;;48.30;27.88;;;;;;;7.94;100.00;101571.84;5034955;28;20087;-69
2023/04/21 07:29:56;;;;;;;47.10;28.52;;;;;;;7.99;100.00;101570.69;5034766;28;20038;-68
2023/04/21 07:32:21;;;;;;;45.22;27.92;;;;;;;8.04;100.00;101563.25;5034761;28;20473;-69
2023/04/21 07:34:47;;;;;;;47.55;28.77;;;;;;;8.04;100.00;101561.44;5033677;28;20088;-68
2023/04/21 07:37:12;;;;;;;44.80;27.73;;;;;;;8.05;100.00;101568.44;5035244;28;20052;-69
2023/04/21 07:39:37;;;;;;;44.67;27.75;;;;;;;8.10;100.00;101576.91;5035084;28;20370;-72
2023/04/21 07:42:07;;;;;;;43.13;27.80;;;;;;;8.16;100.00;101572.16;5034859;28;20049;-69
2023/04/21 07:44:32;;;;;;;48.53;28.63;;;;;;;8.22;100.00;101571.75;5034433;28;20025;-69
2023/04/21 07:46:58;;;;;;;42.53;27.15;;;;;;;8.26;100.00;101562.63;5034011;28;20036;-69
2023/04/21 07:49:23;;;;;;;44.78;28.65;;;;;;;8.32;100.00;101567.50;5034129;28;20049;-69
2023/04/21 07:51:48;;;;;;;43.08;28.52;;;;;;;8.43;100.00;101562.31;5034304;28;20116;-70
2023/04/21 07:54:14;;;;;;;47.25;28.60;;;;;;;8.64;100.00;101570.59;5034378;28;20527;-70
2023/04/21 07:56:39;;;;;;;43.58;28.27;;;;;;;8.83;100.00;101570.09;5034535;28;20034;-70
2023/04/21 07:59:05;;;;;;;39.13;28.58;;;;;;;9.07;100.00;101571.94;5034560;28;20412;-70
2023/04/21 08:01:30;;;;;;;43.58;28.52;;;;;;;9.19;100.00;101570.22;5016592;28;20458;-69
2023/04/21 08:03:55;;;;;;;40.83;27.60;;;;;;;9.06;100.00;101575.59;5034540;28;20519;-70
2023/04/21 08:06:21;;;;;;;43.03;27.88;;;;;;;9.21;100.00;101573.63;5034921;28;20037;-70
2023/04/21 08:08:46;;;;;;;44.78;28.88;;;;;;;9.26;100.00;101562.66;5034384;28;20033;-70
2023/04/21 08:11:12;;;;;;;38.75;27.58;;;;;;;9.33;100.00;101564.75;5034123;28;20029;-69
2023/04/21 08:13:37;;;;;;;40.58;27.20;;;;;;;9.57;100.00;101560.38;5034186;28;20017;-69
2023/04/21 08:16:03;;;;;;;43.78;28.95;;;;;;;9.67;100.00;101558.72;5032754;28;20037;-71
2023/04/21 08:18:28;;;;;;;43.42;27.73;;;;;;;10.08;100.00;101560.03;5033944;28;20025;-69
2023/04/21 08:20:56;;;;;;;41.03;27.33;;;;;;;10.47;100.00;101552.59;5034261;28;20042;-69
2023/04/21 08:23:21;;;;;;;34.22;25.40;;;;;;;10.98;100.00;101558.38;5033781;28;20045;-68
2023/04/21 08:25:47;;;;;;;36.40;25.77;;;;;;;11.32;100.00;101558.28;5034040;28;20037;-70
2023/04/21 08:28:14;;;;;;;33.80;24.17;;;;;;;11.67;100.00;101562.50;5034130;28;20422;-73
2023/04/21 08:30:40;;;;;;;36.67;25.95;;;;;;;11.69;100.00;101556.06;5033907;28;20586;-71
2023/04/21 08:33:07;;;;;;;37.80;25.90;;;;;;;11.82;100.00;101558.53;5034140;28;20033;-70
2023/04/21 08:35:33;;;;;;;33.83;25.05;;;;;;;12.13;100.00;101562.13;5032504;28;20108;-71
2023/04/21 08:37:58;;;;;;;36.38;25.83;;;;;;;11.94;100.00;101546.00;5033981;28;20057;-71
2023/04/21 08:40:33;;;;;;;35.15;25.50;;;;;;;11.83;100.00;101550.41;5033820;28;20101;-69
2023/04/21 08:42:58;;;;;;;35.30;24.77;;;;;;;11.63;100.00;101543.25;5034337;28;20192;-71
2023/04/21 08:45:26;;;;;;;31.55;24.45;;;;;;;11.83;100.00;101549.56;5033774;28;20408;-71
2023/04/21 08:47:54;;;;;;;39.00;28.40;;;;;;;11.79;100.00;101545.47;5033511;28;20128;-70
2023/04/21 08:50:21;;;;;;;34.05;24.17;;;;;;;12.10;100.00;101549.06;5032556;28;20140;-70
2023/04/21 08:52:46;;;;;;;32.10;24.35;;;;;;;12.48;100.00;101539.56;5032984;28;20064;-70
2023/04/21 08:55:12;;;;;;;30.20;22.58;;;;;;;12.90;100.00;101533.22;5033293;28;20530;-71
2023/04/21 08:57:37;;;;;;;30.95;23.67;;;;;;;13.09;100.00;101531.56;5033475;28;20041;-69
2023/04/21 09:00:03;;;;;;;30.27;21.88;;;;;;;13.29;100.00;101537.78;5033494;28;20116;-70
2023/04/21 09:02:29;;;;;;;28.58;22.65;;;;;;;14.05;100.00;101534.34;5033551;28;20399;-71
2023/04/21 09:04:55;;;;;;;23.33;18.50;;;;;;;14.84;100.00;101532.19;5033432;28;20055;-71
2023/04/21 09:07:34;;;;;;;21.40;18.27;;;;;;;15.79;100.00;101529.94;5033449;28;20509;-72
2023/04/21 09:10:00;;;;;;;23.40;18.17;;;;;;;16.68;100.00;101520.69;5033328;28;20543;-74
2023/04/21 09:12:26;;;;;;;21.02;17.92;;;;;;;17.13;100.00;101528.56;5033222;28;20112;-71
2023/04/21 09:14:52;;;;;;;21.55;18.08;;;;;;;17.55;94.68;101531.09;5032007;28;20025;-71
2023/04/21 09:17:19;;;;;;;20.95;17.92;;;;;;;17.69;90.57;101524.22;5032644;28;20036;-71
2023/04/21 09:19:45;;;;;;;21.15;16.85;;;;;;;18.29;88.85;101524.81;5033298;28;20498;-71
2023/04/21 09:22:15;;;;;;;21.45;16.88;;;;;;;17.90;88.49;101528.25;5033229;28;20038;-70
2023/04/21 09:24:45;;;;;;;18.30;16.40;;;;;;;18.46;87.36;101522.88;5033694;28;20040;-71
2023/04/21 09:27:11;;;;;;;19.52;16.92;;;;;;;17.77;71.18;101526.06;5033630;28;20029;-71
2023/04/21 09:29:37;;;;;;;22.20;17.27;;;;;;;18.73;77.17;101518.03;5033136;28;20041;-72
2023/04/21 09:32:02;;;;;;;20.77;17.00;;;;;;;17.98;79.68;101520.16;5033006;28;20063;-72
2023/04/21 09:34:28;;;;;;;22.17;17.48;;;;;;;17.26;86.68;101520.84;5033464;28;20037;-72
2023/04/21 09:37:03;;;;;;;17.80;15.32;;;;;;;16.99;84.09;101517.44;5033245;28;20161;-71
2023/04/21 09:39:30;;;;;;;19.02;16.10;;;;;;;17.04;84.68;101525.00;5032654;28;20025;-72
2023/04/21 09:41:57;;;;;;;18.95;16.20;;;;;;;17.43;82.32;101519.81;5032732;28;20033;-71
2023/04/21 09:44:26;;;;;;;18.08;16.05;;;;;;;18.11;75.34;101516.94;5032665;28;20033;-72
2023/04/21 09:46:58;;;;;;;20.20;16.75;;;;;;;18.81;70.75;101532.31;5031798;28;20075;-71
2023/04/21 09:49:26;;;;;;;18.65;16.20;;;;;;;18.88;73.22;101518.16;5032848;28;20048;-71
2023/04/21 09:51:52;;;;;;;21.08;16.65;;;;;;;17.97;75.57;101513.94;5032987;28;20390;-72
2023/04/21 09:54:19;;;;;;;23.85;16.80;;;;;;;17.22;81.59;101531.06;5032758;28;20045;-70
2023/04/21 09:56:48;;;;;;;21.83;16.73;;;;;;;16.63;89.84;101514.97;5033270;28;20470;-70
2023/04/21 09:59:19;;;;;;;21.85;17.45;;;;;;;16.33;93.70;101521.69;5032786;28;20495;-70
2023/04/21 10:01:48;;;;;;;20.42;17.55;;;;;;;16.39;91.75;101511.16;5032808;28;20366;-70
2023/04/21 10:04:14;;;;;;;22.00;18.45;;;;;;;16.23;91.45;101511.09;5032778;28;20032;-70
2023/04/21 10:06:40;;;;;;;23.20;17.95;;;;;;;16.35;100.00;101501.75;5031468;28;20030;-70
2023/04/21 10:09:08;;;;;;;20.63;17.90;;;;;;;16.77;95.41;101507.28;5032370;28;20037;-70
2023/04/21 10:11:35;;;;;;;20.27;17.67;;;;;;;17.07;91.42;101508.53;5032639;28;20030;-70
2023/04/21 10:14:02;;;;;;;20.02;16.13;;;;;;;17.15;86.64;101505.84;5032955;28;20031;-70
2023/04/21 10:16:27;;;;;;;17.95;16.05;;;;;;;16.29;80.95;101499.72;5032551;28;20095;-71
2023/04/21 10:18:52;;;;;;;18.20;15.43;;;;;;;16.52;87.00;101501.81;5032761;28;20034;-71
2023/04/21 10:21:20;;;;;;;19.92;16.13;;;;;;;16.33;86.75;101505.59;5032200;28;20080;-71
2023/04/21 10:23:52;;;;;;;18.25;15.75;;;;;;;16.55;92.42;101505.00;5031260;28;20049;-71
2023/04/21 10:26:26;;;;;;;19.00;15.60;;;;;;;16.76;86.64;101487.59;5032359;28;20118;-71
2023/04/21 10:28:56;;;;;;;19.52;15.93;;;;;;;17.21;83.61;101497.16;5036443;28;20029;-70
2023/04/21 10:31:50;;;;;;;19.10;14.27;;;;;;;17.83;77.87;101482.31;5036235;28;20464;-70
2023/04/21 10:34:16;;;;;;;17.38;14.70;;;;;;;17.76;78.58;101474.06;5032911;28;20395;-70
2023/04/21 10:36:44;;;;;;;20.15;16.83;;;;;;;17.79;80.99;101478.28;5036086;28;20475;-70
2023/04/21 10:39:23;;;;;;;17.20;15.32;;;;;;;17.77;72.06;101475.75;5035906;28;20034;-70
2023/04/21 10:41:50;;;;;;;19.92;15.18;;;;;;;17.53;72.06;101483.88;5036573;28;20040;-71
2023/04/21 10:44:16;;;;;;;18.20;15.43;;;;;;;16.61;73.65;101473.13;5035718;28;20037;-71
2023/04/21 10:46:52;;;;;;;22.25;16.17;;;;;;;17.60;79.49;101466.00;5035883;28;20163;-71
2023/04/21 10:49:17;;;;;;;21.02;14.73;;;;;;;17.92;74.70;101467.00;5035885;28;20463;-71
2023/04/21 10:51:58;;;;;;;15.70;13.57;;;;;;;18.17;74.08;101459.69;5036112;28;20040;-71
2023/04/21 10:54:25;;;;;;;16.25;12.82;;;;;;;18.30;66.98;101461.81;5035775;28;20124;-71
2023/04/21 10:56:52;;;;;;;17.75;12.70;;;;;;;18.59;66.26;101461.19;5035367;28;20037;-70
2023/04/21 10:59:19;;;;;;;16.05;13.00;;;;;;;18.74;62.27;101455.03;5035717;28;20029;-70
2023/04/21 11:01:44;;;;;;;14.68;13.07;;;;;;;17.99;64.39;101454.53;5035641;28;20025;-70
2023/04/21 11:04:17;;;;;;;16.60;13.10;;;;;;;18.01;67.46;101443.59;5035536;28;20073;-70
2023/04/21 11:07:03;;;;;;;15.77;12.50;;;;;;;18.11;68.44;101450.47;5035317;28;20040;-70